Hundvaag 1 weather for Jul 2003
Month no. 193
Obs.
Da.
Temp. Dew Point Precip. Wind
Speed
Wind gusts Cloud cover Press. Humidity Wind dir. Sunny OPT
01.07.2003 15,1   0,4 0,0   2 1008,0 88,0   1 75,0 %
02.07.2003 14,8   1,2 5,0   0 1003,8 94,0 22,5 1 65,0 %
03.07.2003 15,0   0,1 0,0   3 1004,9 88,0   1 77,5 %
04.07.2003 16,4   0,0 0,0   4 1004,7 94,0   1 80,0 %
05.07.2003 15,7   0,0 16,0   2 1009,5 82,0 337,5 1 65,0 %
06.07.2003 14,9   0,0 9,0   8 1012,3 77,0 337,5 1 82,5 %
07.07.2003 15,6   0,0 0,0   7 1014,7 88,0   1 87,5 %
08.07.2003 15,0   5,0 8,0   0 1012,7 88,0 202,5 1 62,5 %
09.07.2003 14,5   0,0 9,0   2 1014,1 88,0 337,5 1 67,5 %
10.07.2003 11,0   0,0 3,0   10 1015,0 94,0   1 90,0 %
11.07.2003 16,4   6,4 6,0   0 1010,0 94,0 202,5   62,5 %
12.07.2003 10,4   0,5 17,0   1 1011,9 82,0 292,5 1 57,5 %
13.07.2003 12,0   0,1 8,0   10 1016,1 77,0 0,0 1 85,0 %
14.07.2003 13,3   0,0 7,0   10 1016,7 82,0 292,5 1 90,0 %
15.07.2003 15,9   0,0 5,0   10 1015,4 57,0 90,0 1 92,5 %
16.07.2003 19,1   0,0 6,0   10 1013,6 57,0 45,0 1 95,0 %
17.07.2003 24,0   0,0 0,0   3 1014,8 68,0 90,0   82,5 %
18.07.2003 19,8   7,7 3,0   10 1015,8 80,0 135,0 1 92,5 %
19.07.2003 17,9   1,5 3,0   7 1018,2 76,0 112,5 1 90,0 %
20.07.2003 20,2   0,5 8,0   5 1012,4 77,0 112,5 1 82,5 %
21.07.2003 18,8   29,2 36,0   7 1013,4 81,0 202,5 1 45,0 %
22.07.2003 17,5   0,6 6,0   5 1012,8 79,0 112,5 1 82,5 %
23.07.2003 17,2   2,6 1,0   3 1012,8 83,0 180,0   77,5 %
24.07.2003 18,3   0,0 15,0   10 1008,0 71,0 112,5 1 87,5 %
25.07.2003 17,8   9,3 8,0   10 1007,0 78,0 112,5 1 85,0 %
26.07.2003 17,7   7,6 11,0   10 1005,6 59,0 90,0 1 85,0 %
27.07.2003 17,0   4,5 1,0   10 1009,0 81,0 157,5 1 92,5 %
28.07.2003 16,8   3,1 14,0   10 1019,9 78,0 202,5 1 85,0 %
29.07.2003 16,3   0,0 0,0   10 1018,8 68,0 112,5 1 95,0 %
30.07.2003 19,0   0,0 0,0   0 1016,8 68,0 112,5   72,5 %
31.07.2003 19,9   0,0 0,0   10 1001,8 76,0 112,5 1 97,5 %
Avrg/Sum 16,6   80,3 6,6   6,1 1012,0 79,1 158,4 27 80,2 %